Time;durP1;ratioP1;P1;durP2;ratioP2;P2;SDS_P1;SDS_P2;PMS_P1;PMS_P2;Temp;Humidity;BMP_temperature;BMP_pressure;BME280_temperature;BME280_humidity;BME280_pressure;Samples;Min_cycle;Max_cycle;Signal;HPM_P1;HPM_P2
2023/01/01 00:01:28;;;;;;;23.70;8.90;;;15.90;90.40;;;;;;4962916;28;20193;-87
2023/01/01 00:03:55;;;;;;;8.70;7.93;;;15.90;90.30;;;;;;4964388;28;20230;-87
2023/01/01 00:06:21;;;;;;;7.80;5.53;;;15.90;90.20;;;;;;4964503;28;20964;-86
2023/01/01 00:08:48;;;;;;;14.67;6.17;;;15.90;90.10;;;;;;4981635;28;20774;-87
2023/01/01 00:11:13;;;;;;;10.93;6.47;;;15.90;90.00;;;;;;4973417;28;20524;-87
2023/01/01 00:13:40;;;;;;;6.87;4.90;;;15.90;90.00;;;;;;4967367;28;20965;-87
2023/01/01 00:16:12;;;;;;;7.13;4.90;;;15.90;90.00;;;;;;4968959;28;20190;-89
2023/01/01 00:18:38;;;;;;;7.97;4.13;;;15.90;90.00;;;;;;4965910;28;20961;-87
2023/01/01 00:21:10;;;;;;;3.97;3.50;;;15.80;90.10;;;;;;4982251;28;20418;-88
2023/01/01 00:23:36;;;;;;;5.23;3.23;;;15.70;90.10;;;;;;4973618;28;20202;-87
2023/01/01 00:26:09;;;;;;;7.83;6.03;;;15.70;90.10;;;;;;4973222;28;20445;-88
2023/01/01 00:28:34;;;;;;;5.20;3.40;;;15.70;90.10;;;;;;4961075;28;20183;-87
2023/01/01 00:31:12;;;;;;;11.87;4.53;;;15.70;89.90;;;;;;4974118;28;20425;-87
2023/01/01 00:33:37;;;;;;;5.60;5.37;;;15.70;90.10;;;;;;4965665;28;20191;-88
2023/01/01 00:36:11;;;;;;;6.27;5.50;;;15.60;90.00;;;;;;4963915;28;20425;-88
2023/01/01 00:38:38;;;;;;;3.63;3.10;;;15.60;90.00;;;;;;4974139;28;20181;-88
2023/01/01 00:41:03;;;;;;;5.13;2.77;;;15.60;90.10;;;;;;4973876;28;20422;-87
2023/01/01 00:43:29;;;;;;;3.47;3.30;;;15.60;90.00;;;;;;4972756;28;20449;-87
2023/01/01 00:45:55;;;;;;;6.37;1.90;;;15.60;90.10;;;;;;4973932;28;20178;-88
2023/01/01 00:48:20;;;;;;;5.20;2.87;;;15.60;90.10;;;;;;4977436;28;20903;-88
2023/01/01 00:50:50;;;;;;;5.63;2.60;;;15.60;90.10;;;;;;4982761;28;20234;-89
2023/01/01 00:53:16;;;;;;;4.80;3.47;;;15.60;90.20;;;;;;4974285;28;20214;-90
2023/01/01 00:55:42;;;;;;;10.43;4.70;;;15.60;90.20;;;;;;4976688;28;20422;-91
2023/01/01 00:58:08;;;;;;;3.40;3.23;;;15.60;90.40;;;;;;4972507;28;20414;-89
2023/01/01 01:00:34;;;;;;;5.50;3.60;;;15.50;90.60;;;;;;4964374;28;20468;-88
2023/01/01 01:03:00;;;;;;;2.53;2.33;;;15.50;90.90;;;;;;4966855;28;20239;-87
2023/01/01 01:05:25;;;;;;;5.10;2.80;;;15.40;91.30;;;;;;4960089;28;20246;-88
2023/01/01 01:07:51;;;;;;;3.10;2.93;;;15.30;91.70;;;;;;4960869;28;20191;-91
2023/01/01 01:10:19;;;;;;;3.73;2.87;;;15.30;92.00;;;;;;4962218;28;20202;-88
2023/01/01 01:12:44;;;;;;;5.13;2.60;;;15.20;92.30;;;;;;4962672;28;20221;-88
2023/01/01 01:15:10;;;;;;;5.03;3.13;;;15.20;92.40;;;;;;4989830;28;20433;-88
2023/01/01 01:17:35;;;;;;;7.73;3.63;;;15.20;92.50;;;;;;4973022;28;20197;-87
2023/01/01 01:20:01;;;;;;;1.40;1.40;;;15.20;92.50;;;;;;4980542;28;20290;-86
2023/01/01 01:23:31;;;;;;;6.70;3.20;;;15.20;92.60;;;;;;4980248;22;20238;-87
2023/01/01 01:25:33;;;;;;;2.17;1.97;;;15.20;92.60;;;;;;4974830;28;20653;-87
2023/01/01 01:40:50;;;;;;;2.80;2.33;;;15.40;92.00;;;;;;4965112;28;20494;-87
2023/01/01 01:43:43;;;;;;;4.00;2.10;;;15.40;91.90;;;;;;4959707;28;20491;-86
2023/01/01 01:46:19;;;;;;;1.13;1.03;;;15.40;91.70;;;;;;4967538;28;20418;-86
2023/01/01 01:48:47;;;;;;;3.37;2.03;;;15.50;91.10;;;;;;4964164;28;20899;-84
2023/01/01 01:51:17;;;;;;;1.53;1.50;;;15.60;90.90;;;;;;4962482;28;20427;-87
2023/01/01 01:53:50;;;;;;;1.97;1.87;;;15.60;90.60;;;;;;4964207;28;20436;-85
2023/01/01 01:56:22;;;;;;;2.33;1.73;;;15.60;90.50;;;;;;4960509;28;20941;-84
2023/01/01 01:58:47;;;;;;;2.53;1.60;;;15.60;90.40;;;;;;4954905;28;20443;-87
2023/01/01 02:01:13;;;;;;;4.30;3.37;;;15.60;90.30;;;;;;4966254;28;20451;-86
2023/01/01 02:03:58;;;;;;;1.40;1.30;;;15.60;90.20;;;;;;4968428;28;20186;-86
2023/01/01 02:06:26;;;;;;;2.00;1.93;;;15.60;90.10;;;;;;4984559;28;20186;-87
2023/01/01 02:08:52;;;;;;;1.40;1.30;;;15.60;90.10;;;;;;4954544;28;20453;-87
2023/01/01 02:11:18;;;;;;;2.03;1.90;;;15.60;90.20;;;;;;4962037;28;20967;-87
2023/01/01 02:13:43;;;;;;;1.63;1.63;;;15.50;90.20;;;;;;4965168;28;20423;-87
2023/01/01 02:16:25;;;;;;;3.27;2.20;;;15.50;90.30;;;;;;4951566;28;20182;-87
2023/01/01 02:19:16;;;;;;;13.23;1.90;;;15.40;90.50;;;;;;4963630;28;20303;-87
2023/01/01 02:22:06;;;;;;;4.00;1.83;;;15.30;90.90;;;;;;4963129;28;20427;-87
2023/01/01 02:24:43;;;;;;;1.37;1.27;;;15.20;91.40;;;;;;4970447;28;20436;-87
2023/01/01 02:27:27;;;;;;;4.87;2.03;;;15.10;91.90;;;;;;4970925;28;20410;-87
2023/01/01 02:30:05;;;;;;;2.50;2.40;;;15.10;92.10;;;;;;4957142;28;20505;-87
2023/01/01 02:32:41;;;;;;;4.37;3.20;;;15.00;92.50;;;;;;4951396;29;20426;-88
2023/01/01 02:35:35;;;;;;;2.27;2.13;;;15.00;92.80;;;;;;4951202;29;20482;-88
2023/01/01 02:38:14;;;;;;;1.47;1.40;;;14.90;93.20;;;;;;4950950;29;20497;-87
2023/01/01 02:40:45;;;;;;;9.07;1.47;;;14.80;93.60;;;;;;4952360;28;20489;-88
2023/01/01 02:43:10;;;;;;;2.70;1.73;;;14.80;94.00;;;;;;4951119;29;20424;-87
2023/01/01 02:45:36;;;;;;;2.10;1.63;;;14.70;94.50;;;;;;4951472;29;20437;-87
2023/01/01 02:48:07;;;;;;;1.50;1.40;;;14.70;94.70;;;;;;4951032;28;20198;-86
2023/01/01 02:50:34;;;;;;;3.00;2.40;;;14.70;94.90;;;;;;4954298;29;20191;-87
2023/01/01 02:53:21;;;;;;;6.43;1.73;;;14.60;95.00;;;;;;4955334;28;20422;-87
2023/01/01 02:55:53;;;;;;;2.60;2.40;;;14.60;95.10;;;;;;4955036;29;20438;-87
2023/01/01 03:01:37;;;;;;;2.97;2.20;;;14.60;95.20;;;;;;4956263;29;20485;-87
2023/01/01 03:04:28;;;;;;;2.60;1.53;;;14.60;95.40;;;;;;4954752;29;20517;-87
2023/01/01 03:07:11;;;;;;;2.00;1.90;;;14.50;95.40;;;;;;4954665;29;20473;-87
2023/01/01 03:09:43;;;;;;;1.70;1.63;;;14.50;95.50;;;;;;4955121;28;20825;-87
2023/01/01 03:12:38;;;;;;;1.13;1.07;;;14.50;95.60;;;;;;4954779;29;20426;-86
2023/01/01 03:15:13;;;;;;;3.30;1.93;;;14.40;95.70;;;;;;4954688;29;20415;-89
2023/01/01 03:18:08;;;;;;;2.03;1.47;;;14.40;95.70;;;;;;4954705;29;20497;-87
2023/01/01 03:20:39;;;;;;;2.50;1.70;;;14.40;95.80;;;;;;4935655;28;20462;-86
2023/01/01 03:23:08;;;;;;;1.83;1.67;;;14.40;95.70;;;;;;4954509;29;20789;-88
2023/01/01 03:25:41;;;;;;;3.43;2.23;;;14.40;95.70;;;;;;4953704;28;20518;-87
2023/01/01 03:28:13;;;;;;;5.73;2.03;;;14.40;95.60;;;;;;4952667;29;20438;-87
2023/01/01 03:30:41;;;;;;;1.40;1.30;;;14.40;95.50;;;;;;4952058;28;20458;-87
2023/01/01 03:33:17;;;;;;;3.27;1.60;;;14.50;95.30;;;;;;4951512;29;20418;-87
2023/01/01 03:36:00;;;;;;;1.57;1.47;;;14.50;95.20;;;;;;4952583;29;20422;-86
2023/01/01 03:38:59;;;;;;;1.20;1.13;;;14.50;94.90;;;;;;4961206;28;20856;-87
2023/01/01 03:41:35;;;;;;;1.20;1.20;;;14.60;94.70;;;;;;4973316;28;20429;-86
2023/01/01 03:44:40;;;;;;;2.50;1.83;;;14.60;94.60;;;;;;4973286;28;20421;-87
2023/01/01 03:47:06;;;;;;;2.20;2.03;;;14.60;94.40;;;;;;4973386;28;20402;-87
2023/01/01 03:49:32;;;;;;;1.33;1.23;;;14.60;94.40;;;;;;4973184;28;20414;-86
2023/01/01 03:52:11;;;;;;;3.37;2.00;;;14.60;94.40;;;;;;4973207;28;20712;-87
2023/01/01 03:55:15;;;;;;;3.33;1.90;;;14.60;94.40;;;;;;4973257;28;20762;-87
2023/01/01 03:57:43;;;;;;;2.30;1.90;;;14.60;94.40;;;;;;4972843;28;21019;-87
2023/01/01 04:00:18;;;;;;;2.60;2.40;;;14.60;94.40;;;;;;4971327;28;20461;-87
2023/01/01 04:02:47;;;;;;;2.10;1.33;;;14.60;94.40;;;;;;4972925;28;20416;-86
2023/01/01 04:05:14;;;;;;;1.10;1.00;;;14.60;94.50;;;;;;4973491;28;20487;-87
2023/01/01 04:07:39;;;;;;;5.10;2.47;;;14.60;94.40;;;;;;4972783;28;20434;-87
2023/01/01 04:10:18;;;;;;;2.70;2.13;;;14.70;94.20;;;;;;4973276;28;20422;-87
2023/01/01 04:12:56;;;;;;;1.70;1.60;;;14.70;94.20;;;;;;4974535;28;20548;-87
2023/01/01 04:15:25;;;;;;;5.43;2.70;;;14.70;94.20;;;;;;4974483;28;20508;-88
2023/01/01 04:17:51;;;;;;;2.80;1.80;;;14.70;94.20;;;;;;4974351;28;20477;-86
2023/01/01 04:20:17;;;;;;;2.70;2.10;;;14.70;94.00;;;;;;4984083;28;20480;-88
2023/01/01 04:22:43;;;;;;;21.67;3.33;;;14.80;94.00;;;;;;4994315;28;20450;-88
2023/01/01 04:25:10;;;;;;;1.53;1.47;;;14.80;94.00;;;;;;4994154;28;20425;-90
2023/01/01 04:27:37;;;;;;;1.77;1.47;;;14.80;93.80;;;;;;4995132;28;20433;-91
2023/01/01 04:30:04;;;;;;;7.77;3.17;;;14.80;94.00;;;;;;4987318;28;20496;-89
2023/01/01 04:32:30;;;;;;;3.50;2.50;;;14.70;94.00;;;;;;4972235;28;20433;-87
2023/01/01 04:34:55;;;;;;;2.47;2.20;;;14.60;94.20;;;;;;4972558;28;20434;-87
2023/01/01 04:37:21;;;;;;;3.23;2.60;;;14.60;94.20;;;;;;4972412;28;20202;-87
2023/01/01 04:39:46;;;;;;;1.40;1.30;;;14.60;94.20;;;;;;4953714;28;20324;-87
2023/01/01 04:42:12;;;;;;;1.87;1.77;;;14.60;94.20;;;;;;4954245;28;20179;-87
2023/01/01 04:44:37;;;;;;;6.00;3.83;;;14.60;94.20;;;;;;4953055;29;20171;-87
2023/01/01 04:47:03;;;;;;;2.27;2.00;;;14.60;94.40;;;;;;4953012;29;20630;-87
2023/01/01 04:49:29;;;;;;;2.10;1.90;;;14.60;94.20;;;;;;4952808;29;20198;-86
2023/01/01 04:51:54;;;;;;;2.63;2.43;;;14.60;94.20;;;;;;4968543;28;20456;-86
2023/01/01 04:54:20;;;;;;;5.33;1.83;;;14.60;94.40;;;;;;4971986;28;20234;-87
2023/01/01 04:56:45;;;;;;;2.63;1.83;;;14.50;94.50;;;;;;4972105;28;20171;-86
2023/01/01 04:59:11;;;;;;;2.13;1.97;;;14.50;94.50;;;;;;4971889;28;20635;-87
2023/01/01 05:01:36;;;;;;;1.77;1.50;;;14.50;94.50;;;;;;4972082;28;20174;-86
2023/01/01 05:04:02;;;;;;;2.93;1.53;;;14.50;94.60;;;;;;4972103;28;20182;-86
2023/01/01 05:06:28;;;;;;;2.73;1.90;;;14.40;94.70;;;;;;4972277;28;20170;-87
2023/01/01 05:08:54;;;;;;;2.50;1.60;;;14.40;94.80;;;;;;4972159;28;20203;-87
2023/01/01 05:11:22;;;;;;;2.33;2.13;;;14.30;94.90;;;;;;4971786;28;20265;-87
2023/01/01 05:13:49;;;;;;;3.17;1.97;;;14.30;95.10;;;;;;4971368;28;20430;-87
2023/01/01 05:16:19;;;;;;;3.07;2.07;;;14.20;95.10;;;;;;4972827;28;20406;-87
2023/01/01 05:18:46;;;;;;;7.63;3.20;;;14.20;95.20;;;;;;4972772;28;20434;-86
2023/01/01 05:21:17;;;;;;;3.47;2.27;;;14.20;95.30;;;;;;4972986;28;20422;-87
2023/01/01 05:23:42;;;;;;;3.83;2.37;;;14.20;95.30;;;;;;4971636;28;20430;-87
2023/01/01 05:26:14;;;;;;;1.27;1.10;;;14.20;95.40;;;;;;4971626;28;20441;-88
2023/01/01 05:28:40;;;;;;;3.17;2.53;;;14.10;95.50;;;;;;4971358;28;20198;-87
2023/01/01 05:31:08;;;;;;;1.47;1.37;;;14.10;95.50;;;;;;4973006;28;20406;-87
2023/01/01 05:33:34;;;;;;;2.70;1.80;;;14.10;95.50;;;;;;4972206;28;20552;-85
2023/01/01 05:35:59;;;;;;;3.20;1.67;;;14.10;95.60;;;;;;4977858;28;20442;-84
2023/01/01 05:38:25;;;;;;;2.80;1.50;;;14.10;95.60;;;;;;4963882;28;20529;-86
2023/01/01 05:40:50;;;;;;;6.07;1.80;;;14.10;95.70;;;;;;4952039;29;20744;-86
2023/01/01 05:43:17;;;;;;;21.33;2.73;;;14.10;95.70;;;;;;4951776;28;20211;-86
2023/01/01 05:45:43;;;;;;;2.50;1.90;;;14.10;95.80;;;;;;4951963;28;20179;-86
2023/01/01 05:48:09;;;;;;;5.00;3.20;;;14.10;95.90;;;;;;4951977;28;20979;-86
2023/01/01 05:50:34;;;;;;;2.10;2.00;;;14.10;95.80;;;;;;4951759;29;20454;-87
2023/01/01 05:53:00;;;;;;;1.47;1.43;;;14.10;95.70;;;;;;4951811;28;20950;-86
2023/01/01 05:55:26;;;;;;;7.40;1.93;;;14.10;95.70;;;;;;4951526;29;20190;-86
2023/01/01 05:57:51;;;;;;;1.63;1.53;;;14.10;95.60;;;;;;4951880;28;20261;-86
2023/01/01 06:00:17;;;;;;;3.53;1.70;;;14.10;95.50;;;;;;4951520;29;20254;-87
2023/01/01 06:02:43;;;;;;;2.13;1.83;;;14.20;95.50;;;;;;4951856;29;20423;-87
2023/01/01 06:05:08;;;;;;;1.73;1.23;;;14.20;95.40;;;;;;4951581;29;20183;-87
2023/01/01 06:07:34;;;;;;;4.40;2.37;;;14.10;95.40;;;;;;4951521;28;20678;-87
2023/01/01 06:09:59;;;;;;;1.93;1.90;;;14.20;95.30;;;;;;4951393;28;20183;-86
2023/01/01 06:12:25;;;;;;;1.80;1.70;;;14.20;95.10;;;;;;4960914;28;20269;-87
2023/01/01 06:14:50;;;;;;;1.17;1.17;;;14.30;95.00;;;;;;4969324;28;20191;-87
2023/01/01 06:17:16;;;;;;;2.77;1.50;;;14.20;95.00;;;;;;4970458;28;20178;-86
2023/01/01 06:19:41;;;;;;;1.53;1.43;;;14.20;95.00;;;;;;4970285;28;20206;-87
2023/01/01 06:22:07;;;;;;;4.87;1.60;;;14.20;95.10;;;;;;4970455;28;20181;-88
2023/01/01 06:24:32;;;;;;;2.60;2.13;;;14.20;95.10;;;;;;4969713;28;20182;-87
2023/01/01 06:26:57;;;;;;;2.70;1.67;;;14.20;95.10;;;;;;4970547;28;20249;-87
2023/01/01 06:29:23;;;;;;;6.63;2.73;;;14.20;95.10;;;;;;4970250;28;20206;-87
2023/01/01 06:31:48;;;;;;;3.60;2.00;;;14.20;95.00;;;;;;4970513;28;20265;-87
2023/01/01 06:34:14;;;;;;;2.90;2.10;;;14.20;95.00;;;;;;4970644;28;20637;-86
2023/01/01 06:36:39;;;;;;;1.70;1.60;;;14.20;95.00;;;;;;4970499;28;20179;-87
2023/01/01 06:39:05;;;;;;;1.77;1.10;;;14.20;95.00;;;;;;4957186;28;20717;-87
2023/01/01 06:41:31;;;;;;;2.20;1.90;;;14.20;94.90;;;;;;4966685;28;20610;-87
2023/01/01 06:43:58;;;;;;;1.67;1.57;;;14.20;94.70;;;;;;4969511;28;20185;-88
2023/01/01 06:46:31;;;;;;;2.07;1.50;;;14.20;94.60;;;;;;4956140;28;20505;-87
2023/01/01 06:49:00;;;;;;;1.37;1.37;;;14.20;94.50;;;;;;4956830;28;20952;-88
2023/01/01 06:51:28;;;;;;;4.17;1.43;;;14.30;94.40;;;;;;4970261;28;20426;-87
2023/01/01 06:53:54;;;;;;;1.50;1.40;;;14.30;94.20;;;;;;4970297;28;20752;-87
2023/01/01 06:56:20;;;;;;;5.00;2.50;;;14.30;94.20;;;;;;4970141;28;20426;-86
2023/01/01 06:58:46;;;;;;;1.50;1.40;;;14.40;94.00;;;;;;4968781;28;20477;-87
2023/01/01 07:01:20;;;;;;;1.50;1.33;;;14.40;93.90;;;;;;4968777;28;20430;-86
2023/01/01 07:03:51;;;;;;;6.63;1.73;;;14.40;93.90;;;;;;4968515;28;20181;-87
2023/01/01 07:06:16;;;;;;;1.53;1.47;;;14.40;93.90;;;;;;4957592;28;20420;-85
2023/01/01 07:08:42;;;;;;;10.10;2.77;;;14.40;94.00;;;;;;4957815;28;20884;-86
2023/01/01 07:11:08;;;;;;;3.77;1.40;;;14.40;94.10;;;;;;4954711;28;20234;-86
2023/01/01 07:13:33;;;;;;;1.83;1.27;;;14.30;94.20;;;;;;4955377;28;20229;-86
2023/01/01 07:15:59;;;;;;;5.00;3.20;;;14.20;94.30;;;;;;4961145;28;20678;-87
2023/01/01 07:18:27;;;;;;;4.77;2.87;;;14.20;94.40;;;;;;4959787;28;20201;-85
2023/01/01 07:20:58;;;;;;;1.20;1.10;;;14.20;94.40;;;;;;4961997;28;20233;-86
2023/01/01 07:23:28;;;;;;;3.57;1.63;;;14.20;94.50;;;;;;4956282;28;20426;-87
2023/01/01 07:25:54;;;;;;;1.60;1.50;;;14.20;94.50;;;;;;4958006;28;20442;-86
2023/01/01 07:28:22;;;;;;;1.80;1.23;;;14.20;94.50;;;;;;4970279;28;20465;-87
2023/01/01 07:30:48;;;;;;;3.03;1.73;;;14.20;94.60;;;;;;4956954;28;20951;-87
2023/01/01 07:33:16;;;;;;;3.53;3.23;;;14.20;94.70;;;;;;4960621;28;20438;-86
2023/01/01 07:35:43;;;;;;;7.30;2.40;;;14.20;94.70;;;;;;5005468;22;20523;-86
2023/01/01 07:38:09;;;;;;;7.90;2.17;;;14.10;94.90;;;;;;4989997;28;20839;-86
2023/01/01 07:40:34;;;;;;;1.83;1.73;;;14.20;94.90;;;;;;5000771;28;20548;-85
2023/01/01 07:43:00;;;;;;;1.30;1.20;;;14.20;94.70;;;;;;4973202;28;20189;-87
2023/01/01 07:45:26;;;;;;;1.77;1.70;;;14.20;94.90;;;;;;4968287;28;20206;-86
2023/01/01 07:47:54;;;;;;;1.37;1.27;;;14.10;94.90;;;;;;4968618;28;20285;-87
2023/01/01 07:50:20;;;;;;;1.73;1.40;;;14.10;94.90;;;;;;4954364;28;20811;-86
2023/01/01 07:52:46;;;;;;;2.40;1.77;;;14.10;95.00;;;;;;4987017;28;20426;-86
2023/01/01 07:55:16;;;;;;;4.47;2.10;;;14.10;95.00;;;;;;4987469;28;20465;-87
2023/01/01 07:57:42;;;;;;;1.50;1.33;;;14.10;95.00;;;;;;4986491;28;20384;-87
2023/01/01 08:00:10;;;;;;;3.57;2.27;;;14.20;94.90;;;;;;4981222;28;20454;-87
2023/01/01 08:02:36;;;;;;;2.20;1.20;;;14.20;94.70;;;;;;4962098;28;20430;-87
2023/01/01 08:05:02;;;;;;;1.40;1.30;;;14.30;94.60;;;;;;4978118;28;20465;-87
2023/01/01 08:07:28;;;;;;;3.33;2.13;;;14.30;94.50;;;;;;4977483;28;20934;-85
2023/01/01 08:09:53;;;;;;;8.83;2.47;;;14.30;94.50;;;;;;4980253;28;20434;-86
2023/01/01 08:12:19;;;;;;;2.80;1.80;;;14.30;94.40;;;;;;4966710;28;20186;-85
2023/01/01 08:14:45;;;;;;;1.70;1.60;;;14.40;94.30;;;;;;4963332;28;20203;-88
2023/01/01 08:17:10;;;;;;;4.80;1.73;;;14.40;94.20;;;;;;4984115;28;20178;-86
2023/01/01 08:19:36;;;;;;;2.80;2.20;;;14.40;94.10;;;;;;4989207;28;21027;-87
2023/01/01 08:22:01;;;;;;;8.80;2.20;;;14.50;93.90;;;;;;4977815;28;20183;-88
2023/01/01 08:24:27;;;;;;;3.73;2.77;;;14.50;93.80;;;;;;4986410;28;20218;-87
2023/01/01 08:26:52;;;;;;;4.70;2.50;;;14.60;93.60;;;;;;4976612;28;20179;-88
2023/01/01 08:29:19;;;;;;;1.43;1.33;;;14.60;93.50;;;;;;4991082;28;20183;-87
2023/01/01 08:31:44;;;;;;;3.23;1.97;;;14.60;93.40;;;;;;4970821;28;20230;-88
2023/01/01 08:34:10;;;;;;;5.23;2.90;;;14.70;93.30;;;;;;4953508;28;20450;-87
2023/01/01 08:36:36;;;;;;;2.73;1.90;;;14.70;93.30;;;;;;4978685;28;20262;-86
2023/01/01 08:39:02;;;;;;;3.63;3.13;;;14.70;93.20;;;;;;4979629;28;20182;-87
2023/01/01 08:41:28;;;;;;;1.40;1.30;;;14.70;93.30;;;;;;4965441;28;20429;-87
2023/01/01 08:43:53;;;;;;;1.33;1.23;;;14.70;93.20;;;;;;4972440;28;20174;-85
2023/01/01 08:46:19;;;;;;;1.50;1.43;;;14.70;93.20;;;;;;4964551;28;20581;-86
2023/01/01 08:48:44;;;;;;;1.20;1.10;;;14.70;93.20;;;;;;4980184;28;20186;-87
2023/01/01 08:51:10;;;;;;;2.40;2.27;;;14.70;93.30;;;;;;4971652;28;20554;-85
2023/01/01 08:53:35;;;;;;;2.47;2.17;;;14.80;93.10;;;;;;4972612;28;20178;-88
2023/01/01 08:56:06;;;;;;;3.17;2.77;;;14.80;92.90;;;;;;4973414;28;20587;-86
2023/01/01 08:58:34;;;;;;;4.23;2.33;;;14.90;93.00;;;;;;4968590;28;20178;-87
2023/01/01 09:00:59;;;;;;;2.77;2.60;;;15.00;92.60;;;;;;4988367;28;20552;-87
2023/01/01 09:03:25;;;;;;;2.30;2.07;;;15.10;92.30;;;;;;4970225;28;20578;-87
2023/01/01 09:05:51;;;;;;;5.00;2.20;;;15.20;92.50;;;;;;4968668;28;20195;-86
2023/01/01 09:08:17;;;;;;;3.07;2.90;;;15.20;92.10;;;;;;4980305;28;20418;-87
2023/01/01 09:10:43;;;;;;;2.17;1.90;;;15.30;92.10;;;;;;4973022;28;20422;-87
2023/01/01 09:13:14;;;;;;;3.40;2.10;;;15.30;92.20;;;;;;4988062;28;20233;-87
2023/01/01 09:15:41;;;;;;;2.47;2.30;;;15.30;91.80;;;;;;4988351;28;20809;-87
2023/01/01 09:18:07;;;;;;;1.87;1.53;;;15.40;91.80;;;;;;4974565;28;20772;-87
2023/01/01 09:20:32;;;;;;;7.27;2.33;;;15.30;92.00;;;;;;4968907;28;20462;-88
2023/01/01 09:22:58;;;;;;;1.27;1.17;;;15.30;91.90;;;;;;4968538;28;20176;-86
2023/01/01 09:25:23;;;;;;;5.87;2.63;;;15.30;91.70;;;;;;4970665;28;20199;-87
2023/01/01 09:27:55;;;;;;;2.40;2.10;;;15.40;91.90;;;;;;4971661;28;20183;-87
2023/01/01 09:30:20;;;;;;;6.20;2.50;;;15.40;91.80;;;;;;4988256;28;20702;-87
2023/01/01 09:32:46;;;;;;;2.03;1.40;;;15.40;91.60;;;;;;4971976;28;20431;-87
2023/01/01 09:35:11;;;;;;;1.40;1.37;;;15.40;91.70;;;;;;4967985;28;20238;-86
2023/01/01 09:37:37;;;;;;;10.03;3.43;;;15.40;91.60;;;;;;4952620;29;20195;-88
2023/01/01 09:40:03;;;;;;;1.50;1.40;;;15.40;91.60;;;;;;4967945;28;20207;-85
2023/01/01 09:42:42;;;;;;;2.17;2.00;;;15.40;91.50;;;;;;4953069;29;20183;-87
2023/01/01 09:45:26;;;;;;;4.20;2.40;;;15.40;91.40;;;;;;4968055;28;20206;-87
2023/01/01 09:48:05;;;;;;;9.33;2.43;;;15.40;91.30;;;;;;4953049;28;20414;-86
2023/01/01 09:50:39;;;;;;;2.07;1.93;;;15.50;91.30;;;;;;4967886;28;20789;-86
2023/01/01 09:53:12;;;;;;;11.73;1.77;;;15.50;91.10;;;;;;4967947;28;20522;-87
2023/01/01 09:55:52;;;;;;;2.67;1.57;;;15.50;91.00;;;;;;4969128;28;20786;-89
2023/01/01 09:58:22;;;;;;;3.03;2.23;;;15.60;91.10;;;;;;4953424;28;20885;-87
2023/01/01 10:00:52;;;;;;;1.97;1.90;;;15.60;90.70;;;;;;4968035;28;20478;-87
2023/01/01 10:03:47;;;;;;;2.20;2.03;;;15.60;90.80;;;;;;4970692;28;20862;-88
2023/01/01 10:06:26;;;;;;;5.73;2.57;;;15.60;91.00;;;;;;4973444;28;20558;-89
2023/01/01 10:08:59;;;;;;;3.63;2.10;;;15.60;90.90;;;;;;4975059;28;20476;-86
2023/01/01 10:11:44;;;;;;;2.80;1.90;;;15.60;91.00;;;;;;4977702;28;20423;-86
2023/01/01 10:14:34;;;;;;;3.87;2.73;;;15.60;91.10;;;;;;4989370;28;20775;-86
2023/01/01 10:17:05;;;;;;;8.90;1.97;;;15.60;91.20;;;;;;4983582;28;20442;-89
2023/01/01 10:19:33;;;;;;;8.00;3.20;;;15.60;91.20;;;;;;4978927;28;21068;-87
2023/01/01 10:22:06;;;;;;;5.27;3.60;;;15.60;91.30;;;;;;4983257;28;20427;-89
2023/01/01 10:24:53;;;;;;;6.67;1.70;;;15.60;91.40;;;;;;4978510;28;20444;-88
2023/01/01 10:27:32;;;;;;;3.10;2.20;;;15.60;91.40;;;;;;4986833;28;20444;-86
2023/01/01 10:30:00;;;;;;;4.73;2.80;;;15.60;91.30;;;;;;4968519;28;20806;-88
2023/01/01 10:32:34;;;;;;;4.17;2.53;;;15.70;91.40;;;;;;4988432;28;21101;-86
2023/01/01 10:35:01;;;;;;;3.50;2.77;;;15.70;91.20;;;;;;4972705;28;21091;-87
2023/01/01 10:37:33;;;;;;;3.60;1.90;;;15.80;91.20;;;;;;4972543;28;20422;-87
2023/01/01 10:40:03;;;;;;;3.40;2.03;;;15.90;90.90;;;;;;4969740;28;20540;-86
2023/01/01 10:42:29;;;;;;;7.50;2.50;;;15.90;90.90;;;;;;4971963;28;20428;-86
2023/01/01 10:44:56;;;;;;;8.23;1.80;;;16.00;90.80;;;;;;4970627;28;20521;-87
2023/01/01 10:47:27;;;;;;;2.23;2.03;;;16.00;90.70;;;;;;4970887;28;20245;-88
2023/01/01 10:49:59;;;;;;;2.40;1.83;;;16.00;90.70;;;;;;4969891;28;20693;-88
2023/01/01 10:52:27;;;;;;;2.20;1.80;;;16.00;90.70;;;;;;4963982;28;20441;-85
2023/01/01 10:54:53;;;;;;;1.43;1.33;;;16.00;90.60;;;;;;4986753;28;20450;-88
2023/01/01 10:57:39;;;;;;;1.80;1.70;;;16.00;90.60;;;;;;4968268;28;20432;-87
2023/01/01 11:00:21;;;;;;;2.33;2.00;;;16.00;90.60;;;;;;4967925;28;20206;-86
2023/01/01 11:03:04;;;;;;;4.40;2.87;;;16.00;90.30;;;;;;4967760;28;20524;-88
2023/01/01 11:05:29;;;;;;;4.10;2.20;;;16.00;90.60;;;;;;4983748;28;20441;-86
2023/01/01 11:07:55;;;;;;;1.97;1.80;;;16.00;90.50;;;;;;4968821;28;20418;-87
2023/01/01 11:10:24;;;;;;;3.70;2.50;;;16.00;90.70;;;;;;4968684;28;20186;-87
2023/01/01 11:12:52;;;;;;;2.30;2.13;;;15.90;90.70;;;;;;4968971;28;20178;-87
2023/01/01 11:15:37;;;;;;;7.80;2.10;;;15.90;90.60;;;;;;4983747;28;20532;-87
2023/01/01 11:18:05;;;;;;;2.20;2.00;;;15.90;91.00;;;;;;4983263;28;20605;-88
2023/01/01 11:20:32;;;;;;;1.63;1.60;;;15.90;90.80;;;;;;4971943;28;21015;-87
2023/01/01 11:22:58;;;;;;;4.30;1.63;;;15.90;91.00;;;;;;4968634;28;20414;-89
2023/01/01 11:25:33;;;;;;;5.67;2.20;;;15.90;90.80;;;;;;4969289;28;20840;-87
2023/01/01 11:28:19;;;;;;;2.50;1.60;;;15.90;91.00;;;;;;4967756;28;20178;-86
2023/01/01 11:31:00;;;;;;;3.50;2.50;;;15.90;90.90;;;;;;4973408;28;20425;-87
2023/01/01 11:33:32;;;;;;;1.97;1.87;;;15.90;90.90;;;;;;4961817;28;20422;-84
2023/01/01 11:35:58;;;;;;;2.20;1.73;;;15.90;90.70;;;;;;4970008;28;21047;-85
2023/01/01 11:38:26;;;;;;;1.33;1.23;;;15.90;90.80;;;;;;4961733;28;20525;-87
2023/01/01 11:40:55;;;;;;;2.80;1.90;;;16.00;90.90;;;;;;4967177;28;20480;-85
2023/01/01 11:43:27;;;;;;;2.00;1.87;;;16.00;90.90;;;;;;4974064;28;20418;-85
2023/01/01 11:45:54;;;;;;;1.77;1.70;;;16.00;90.70;;;;;;4989672;28;20461;-87
2023/01/01 11:48:27;;;;;;;1.23;1.13;;;16.00;90.80;;;;;;4988170;28;20504;-84
2023/01/01 11:50:55;;;;;;;7.23;2.03;;;16.10;90.50;;;;;;4986061;28;20425;-86
2023/01/01 11:53:21;;;;;;;2.13;1.70;;;16.10;90.50;;;;;;4970619;28;20456;-85
2023/01/01 11:56:11;;;;;;;3.30;1.80;;;16.10;90.50;;;;;;4969129;28;20970;-84
2023/01/01 11:59:04;;;;;;;1.50;1.43;;;16.10;90.50;;;;;;4967901;28;20183;-85
2023/01/01 12:01:32;;;;;;;3.73;2.43;;;16.20;90.40;;;;;;4978553;28;20510;-87
2023/01/01 12:04:24;;;;;;;2.40;1.40;;;16.20;90.30;;;;;;4968622;28;20437;-87
2023/01/01 12:06:59;;;;;;;15.83;2.60;;;16.20;90.20;;;;;;4980346;28;20987;-86
2023/01/01 12:09:35;;;;;;;2.80;2.60;;;16.20;90.40;;;;;;4970239;28;20413;-87
2023/01/01 12:12:22;;;;;;;3.37;1.53;;;16.20;90.50;;;;;;4970788;28;20453;-86
2023/01/01 12:14:53;;;;;;;2.00;1.30;;;16.30;90.50;;;;;;4968751;28;20470;-87
2023/01/01 12:17:27;;;;;;;7.33;1.73;;;16.30;90.40;;;;;;4974096;28;20855;-87
2023/01/01 12:20:24;;;;;;;2.13;1.97;;;16.30;90.30;;;;;;4955019;28;20466;-86
2023/01/01 12:22:51;;;;;;;4.40;1.87;;;16.20;90.40;;;;;;4985521;28;20422;-87
2023/01/01 12:25:18;;;;;;;2.60;1.50;;;16.30;90.70;;;;;;4973759;28;20529;-86
2023/01/01 12:28:18;;;;;;;2.50;1.87;;;16.30;90.40;;;;;;4972130;28;20936;-87
2023/01/01 12:30:53;;;;;;;5.57;2.47;;;16.30;90.40;;;;;;4976678;28;20426;-87
2023/01/01 12:33:49;;;;;;;1.83;1.73;;;16.30;90.40;;;;;;4973446;28;20425;-86
2023/01/01 12:36:24;;;;;;;2.40;2.20;;;16.30;90.20;;;;;;4959020;28;20480;-87
2023/01/01 12:38:50;;;;;;;3.10;2.60;;;16.30;90.30;;;;;;4969447;28;20698;-86
2023/01/01 12:41:29;;;;;;;4.97;2.63;;;16.30;90.50;;;;;;4972880;28;20815;-87
2023/01/01 12:43:57;;;;;;;2.30;1.20;;;16.30;90.30;;;;;;4976655;28;20183;-86
2023/01/01 12:46:34;;;;;;;1.50;1.40;;;16.30;90.40;;;;;;4987937;28;20457;-87
2023/01/01 12:49:35;;;;;;;38.40;2.87;;;16.40;90.20;;;;;;4983686;28;20430;-86
2023/01/01 12:52:43;;;;;;;2.30;1.90;;;16.40;90.20;;;;;;4967549;28;20421;-86
2023/01/01 12:55:39;;;;;;;3.60;2.13;;;16.40;90.10;;;;;;4962184;28;20535;-86
2023/01/01 12:58:14;;;;;;;3.70;2.03;;;16.50;89.90;;;;;;4973523;28;20441;-87
2023/01/01 13:00:53;;;;;;;2.20;2.00;;;16.60;89.70;;;;;;4972314;28;20469;-87
2023/01/01 13:03:23;;;;;;;1.57;1.50;;;16.70;89.80;;;;;;4965335;28;20423;-87
2023/01/01 13:05:55;;;;;;;6.73;3.03;;;16.80;89.30;;;;;;4965572;28;20614;-88
2023/01/01 13:08:21;;;;;;;3.63;1.40;;;16.90;89.00;;;;;;4971395;28;20453;-87
2023/01/01 13:10:50;;;;;;;3.10;2.13;;;16.90;89.20;;;;;;4972394;28;20461;-87
2023/01/01 13:13:17;;;;;;;2.00;1.90;;;16.90;89.60;;;;;;4963437;28;20187;-86
2023/01/01 13:15:47;;;;;;;6.30;4.43;;;16.80;89.50;;;;;;4954663;28;20474;-87
2023/01/01 13:18:12;;;;;;;4.20;1.97;;;16.80;89.60;;;;;;4971883;28;20418;-87
2023/01/01 13:20:52;;;;;;;6.20;1.20;;;16.70;89.80;;;;;;4987345;28;20504;-87